Time,TemperatureF,DewpointF,PressureIn,WindDirection,WindDirectionDegrees,WindSpeedMPH,WindSpeedGustMPH,Humidity,HourlyPrecipIn,Conditions,Clouds,dailyrainin,SoftwareType,DateUTC
2013-04-12 00:00:00,71.1,57.9,29.67,SSE,156,0.0,12.0,63,0.00,,,0.00,Wunderground v.1.15,2013-04-12 04:00:00,
2013-04-12 00:08:00,71.2,58.0,29.66,SE,136,1.0,12.0,63,0.00,,,0.00,Wunderground v.1.15,2013-04-12 04:08:00,
2013-04-12 00:10:00,71.2,58.0,29.67,South,170,1.0,1.0,63,0.00,,,0.00,Wunderground v.1.15,2013-04-12 04:10:00,
2013-04-12 00:16:00,71.5,58.2,29.66,ENE,57,1.0,12.0,63,0.00,,,0.00,Wunderground v.1.15,2013-04-12 04:16:00,
2013-04-12 00:22:00,71.5,58.2,29.66,South,174,1.0,12.0,63,0.00,,,0.00,Wunderground v.1.15,2013-04-12 04:22:00,
2013-04-12 00:28:00,71.2,58.4,29.66,East,83,0.0,12.0,64,0.00,,,0.00,Wunderground v.1.15,2013-04-12 04:28:00,
2013-04-12 00:34:00,70.9,58.1,29.66,SE,126,0.0,12.0,64,0.00,,,0.00,Wunderground v.1.15,2013-04-12 04:34:00,
2013-04-12 00:40:00,70.6,58.7,29.66,SSE,149,0.0,12.0,66,0.00,,,0.00,Wunderground v.1.15,2013-04-12 04:40:00,
2013-04-12 00:46:00,70.4,58.5,29.66,SSW,200,0.0,12.0,66,0.00,,,0.00,Wunderground v.1.15,2013-04-12 04:46:00,
2013-04-12 00:52:00,70.2,58.3,29.67,WNW,302,0.0,12.0,66,0.00,,,0.00,Wunderground v.1.15,2013-04-12 04:52:00,
2013-04-12 01:00:00,69.9,58.4,29.67,ESE,113,0.0,16.0,67,0.00,,,0.00,Wunderground v.1.15,2013-04-12 05:00:00,
2013-04-12 01:08:00,70.0,59.0,29.65,WNW,286,1.0,16.0,68,0.00,,,0.00,Wunderground v.1.15,2013-04-12 05:08:00,
2013-04-12 01:16:00,70.9,59.4,29.66,South,173,3.0,16.0,67,0.00,,,0.00,Wunderground v.1.15,2013-04-12 05:16:00,
2013-04-12 01:24:00,71.5,59.5,29.65,SSW,192,2.0,16.0,66,0.00,,,0.00,Wunderground v.1.15,2013-04-12 05:24:00,
2013-04-12 01:30:00,71.7,59.3,29.65,SSE,166,2.0,2.0,65,0.00,,,0.00,Wunderground v.1.15,2013-04-12 05:30:00,
2013-04-12 01:36:00,71.8,59.8,29.65,SE,131,2.0,16.0,66,0.00,,,0.00,Wunderground v.1.15,2013-04-12 05:36:00,
2013-04-12 01:42:00,71.7,59.7,29.65,ESE,111,1.0,16.0,66,0.00,,,0.00,Wunderground v.1.15,2013-04-12 05:42:00,
2013-04-12 01:48:00,71.7,59.7,29.65,East,91,0.0,16.0,66,0.00,,,0.00,Wunderground v.1.15,2013-04-12 05:48:00,
2013-04-12 01:54:00,71.7,60.2,29.65,SSE,161,1.0,16.0,67,0.00,,,0.00,Wunderground v.1.15,2013-04-12 05:54:00,
2013-04-12 02:00:00,71.8,59.8,29.64,East,86,1.0,16.0,66,0.00,,,0.00,Wunderground v.1.15,2013-04-12 06:00:00,
2013-04-12 02:08:00,71.5,60.0,29.65,South,174,0.0,16.0,67,0.00,,,0.00,Wunderground v.1.15,2013-04-12 06:08:00,
2013-04-12 02:18:00,71.1,60.0,29.64,SW,228,0.0,16.0,68,0.00,,,0.00,Wunderground v.1.15,2013-04-12 06:18:00,
2013-04-12 02:24:00,70.9,59.8,29.63,NW,319,0.0,16.0,68,0.00,,,0.00,Wunderground v.1.15,2013-04-12 06:24:00,
2013-04-12 02:30:00,70.7,60.0,29.63,NW,319,0.0,16.0,69,0.00,,,0.00,Wunderground v.1.15,2013-04-12 06:30:00,
2013-04-12 02:36:00,70.5,60.2,29.63,North,351,0.0,16.0,70,0.00,,,0.00,Wunderground v.1.15,2013-04-12 06:36:00,
2013-04-12 02:42:00,70.3,60.4,29.62,North,351,0.0,16.0,71,0.00,,,0.00,Wunderground v.1.15,2013-04-12 06:42:00,
2013-04-12 02:48:00,70.1,60.7,29.62,North,351,0.0,16.0,72,0.00,,,0.00,Wunderground v.1.15,2013-04-12 06:48:00,
2013-04-12 02:54:00,70.1,61.4,29.61,East,82,0.0,16.0,74,0.00,,,0.00,Wunderground v.1.15,2013-04-12 06:54:00,
2013-04-12 03:02:00,70.3,62.0,29.61,South,182,1.0,1.0,75,0.00,,,0.00,Wunderground v.1.15,2013-04-12 07:02:00,
2013-04-12 03:08:00,70.4,62.5,29.60,SSE,154,1.0,2.0,76,0.00,,,0.00,Wunderground v.1.15,2013-04-12 07:08:00,
2013-04-12 03:14:00,70.6,62.3,29.60,SSE,158,1.0,1.0,75,0.00,,,0.00,Wunderground v.1.15,2013-04-12 07:14:00,
2013-04-12 03:20:00,70.6,62.7,29.60,SSW,202,0.0,0.0,76,0.00,,,0.00,Wunderground v.1.15,2013-04-12 07:20:00,
2013-04-12 03:26:00,70.7,63.1,29.60,ESE,104,0.0,0.0,77,0.00,,,0.00,Wunderground v.1.15,2013-04-12 07:26:00,
2013-04-12 03:32:00,70.6,62.7,29.59,South,182,0.0,3.0,76,0.00,,,0.00,Wunderground v.1.15,2013-04-12 07:32:00,
2013-04-12 03:38:00,70.5,62.9,29.59,NNW,330,1.0,3.0,77,0.00,,,0.00,Wunderground v.1.15,2013-04-12 07:38:00,
2013-04-12 03:44:00,70.6,63.0,29.58,SSW,194,2.0,2.0,77,0.00,,,0.00,Wunderground v.1.15,2013-04-12 07:44:00,
2013-04-12 03:50:00,70.5,63.3,29.58,NNW,348,2.0,2.0,78,0.00,,,0.00,Wunderground v.1.15,2013-04-12 07:50:00,
2013-04-12 03:56:00,70.4,63.2,29.58,SE,130,1.0,2.0,78,0.00,,,0.00,Wunderground v.1.15,2013-04-12 07:56:00,
2013-04-12 04:06:00,70.5,63.3,29.57,SSW,213,2.0,11.0,78,0.00,,,0.00,Wunderground v.1.15,2013-04-12 08:06:00,
2013-04-12 04:18:00,70.6,63.4,29.57,South,189,3.0,11.0,78,0.00,,,0.00,Wunderground v.1.15,2013-04-12 08:18:00,
2013-04-12 04:24:00,70.6,63.0,29.57,South,177,3.0,11.0,77,0.00,,,0.00,Wunderground v.1.15,2013-04-12 08:24:00,
2013-04-12 04:30:00,70.6,63.0,29.57,South,187,2.0,11.0,77,0.00,,,0.00,Wunderground v.1.15,2013-04-12 08:30:00,
2013-04-12 04:40:00,70.6,63.0,29.57,South,173,2.0,11.0,77,0.00,,,0.00,Wunderground v.1.15,2013-04-12 08:40:00,
2013-04-12 04:48:00,70.7,63.1,29.56,SSE,165,3.0,3.0,77,0.00,,,0.00,Wunderground v.1.15,2013-04-12 08:48:00,
2013-04-12 04:54:00,70.7,63.1,29.56,NE,38,2.0,11.0,77,0.00,,,0.00,Wunderground v.1.15,2013-04-12 08:54:00,
2013-04-12 05:04:00,70.6,63.0,29.56,SSW,199,2.0,13.0,77,0.00,,,0.00,Wunderground v.1.15,2013-04-12 09:04:00,
2013-04-12 05:10:00,70.6,63.0,29.56,South,184,1.0,13.0,77,0.00,,,0.00,Wunderground v.1.15,2013-04-12 09:10:00,
2013-04-12 05:18:00,70.5,62.9,29.56,ESE,108,3.0,3.0,77,0.00,,,0.00,Wunderground v.1.15,2013-04-12 09:18:00,
2013-04-12 05:24:00,70.0,63.9,29.57,SSW,209,3.0,13.0,81,0.33,,,0.08,Wunderground v.1.15,2013-04-12 09:24:00,
2013-04-12 05:30:00,68.9,63.9,29.56,ENE,61,3.0,13.0,84,0.15,,,0.10,Wunderground v.1.15,2013-04-12 09:30:00,
2013-04-12 05:38:00,67.8,63.8,29.57,SSE,156,1.0,1.0,87,0.32,,,0.13,Wunderground v.1.15,2013-04-12 09:38:00,
2013-04-12 05:44:00,67.2,63.5,29.58,SSE,153,2.0,13.0,88,0.32,,,0.17,Wunderground v.1.15,2013-04-12 09:44:00,
2013-04-12 05:54:00,66.5,63.5,29.58,SSE,161,1.0,13.0,90,0.35,,,0.21,Wunderground v.1.15,2013-04-12 09:54:00,
2013-04-12 06:00:00,66.3,63.6,29.60,West,281,2.0,2.0,91,1.29,,,0.27,Wunderground v.1.15,2013-04-12 10:00:00,
2013-04-12 06:06:00,66.0,63.3,29.62,East,82,3.0,13.0,91,2.70,,,0.48,Wunderground v.1.15,2013-04-12 10:06:00,
2013-04-12 06:14:00,64.1,60.2,29.61,SSW,197,5.0,13.0,87,0.59,,,0.75,Wunderground v.1.15,2013-04-12 10:14:00,
2013-04-12 06:20:00,63.2,59.6,29.60,SSE,161,4.0,4.0,88,0.14,,,0.77,Wunderground v.1.15,2013-04-12 10:20:00,
2013-04-12 06:26:00,62.8,59.5,29.60,West,281,2.0,13.0,89,0.10,,,0.78,Wunderground v.1.15,2013-04-12 10:26:00,
2013-04-12 06:32:00,62.5,59.5,29.60,South,188,0.0,13.0,90,0.10,,,0.79,Wunderground v.1.15,2013-04-12 10:32:00,
2013-04-12 06:40:00,62.3,59.6,29.59,South,188,0.0,13.0,91,0.15,,,0.82,Wunderground v.1.15,2013-04-12 10:40:00,
2013-04-12 06:46:00,62.3,59.9,29.60,South,188,0.0,13.0,92,0.14,,,0.83,Wunderground v.1.15,2013-04-12 10:46:00,
2013-04-12 06:52:00,62.2,59.8,29.60,South,188,0.0,13.0,92,0.21,,,0.85,Wunderground v.1.15,2013-04-12 10:52:00,
2013-04-12 07:02:00,62.1,59.7,29.58,South,188,0.0,13.0,92,0.14,,,0.88,Wunderground v.1.15,2013-04-12 11:02:00,
2013-04-12 07:08:00,62.1,60.1,29.59,South,188,0.0,13.0,93,0.06,,,0.88,Wunderground v.1.15,2013-04-12 11:08:00,
2013-04-12 07:16:00,62.0,60.0,29.58,South,188,0.0,13.0,93,0.06,,,0.89,Wunderground v.1.15,2013-04-12 11:16:00,
2013-04-12 07:22:00,61.9,59.9,29.58,South,188,0.0,13.0,93,0.05,,,0.89,Wunderground v.1.15,2013-04-12 11:22:00,
2013-04-12 07:28:00,61.8,59.8,29.59,South,188,0.0,13.0,93,0.00,,,0.89,Wunderground v.1.15,2013-04-12 11:28:00,
2013-04-12 07:34:00,61.7,59.7,29.59,South,188,0.0,13.0,93,0.00,,,0.89,Wunderground v.1.15,2013-04-12 11:34:00,
2013-04-12 07:40:00,61.7,59.7,29.59,South,188,0.0,13.0,93,0.00,,,0.89,Wunderground v.1.15,2013-04-12 11:40:00,
2013-04-12 07:46:00,61.6,59.6,29.59,South,188,0.0,13.0,93,0.00,,,0.89,Wunderground v.1.15,2013-04-12 11:46:00,
2013-04-12 07:52:00,61.6,59.9,29.59,South,188,0.0,13.0,94,0.00,,,0.89,Wunderground v.1.15,2013-04-12 11:52:00,
2013-04-12 07:58:00,61.6,59.9,29.59,South,188,0.0,13.0,94,0.00,,,0.89,Wunderground v.1.15,2013-04-12 11:58:00,
2013-04-12 08:04:00,61.5,59.8,29.59,South,188,0.0,13.0,94,0.00,,,0.89,Wunderground v.1.15,2013-04-12 12:04:00,
2013-04-12 08:10:00,61.5,59.8,29.60,South,188,0.0,13.0,94,0.00,,,0.89,Wunderground v.1.15,2013-04-12 12:10:00,
2013-04-12 08:18:00,61.6,59.9,29.60,South,188,0.0,13.0,94,0.00,,,0.89,Wunderground v.1.15,2013-04-12 12:18:00,
2013-04-12 08:26:00,61.7,60.0,29.60,ENE,78,0.0,13.0,94,0.00,,,0.89,Wunderground v.1.15,2013-04-12 12:26:00,
2013-04-12 08:32:00,61.6,59.9,29.60,ESE,113,0.0,13.0,94,0.00,,,0.89,Wunderground v.1.15,2013-04-12 12:32:00,
2013-04-12 08:40:00,61.5,59.8,29.60,East,92,1.0,13.0,94,0.00,,,0.89,Wunderground v.1.15,2013-04-12 12:40:00,
2013-04-12 08:48:00,61.6,59.9,29.59,SSE,153,0.0,13.0,94,0.00,,,0.89,Wunderground v.1.15,2013-04-12 12:48:00,
2013-04-12 08:54:00,61.6,59.9,29.59,SSE,153,0.0,13.0,94,0.00,,,0.89,Wunderground v.1.15,2013-04-12 12:54:00,
2013-04-12 09:00:00,61.6,59.9,29.59,SSE,153,0.0,13.0,94,0.00,,,0.89,Wunderground v.1.15,2013-04-12 13:00:00,
2013-04-12 09:06:00,61.9,60.2,29.59,SSE,153,0.0,13.0,94,0.00,,,0.89,Wunderground v.1.15,2013-04-12 13:06:00,
2013-04-12 09:12:00,62.1,60.4,29.59,SSE,153,0.0,13.0,94,0.00,,,0.89,Wunderground v.1.15,2013-04-12 13:12:00,
2013-04-12 09:18:00,62.2,60.5,29.59,SSE,165,0.0,13.0,94,0.00,,,0.89,Wunderground v.1.15,2013-04-12 13:18:00,
2013-04-12 09:24:00,62.3,60.6,29.59,South,174,0.0,13.0,94,0.00,,,0.89,Wunderground v.1.15,2013-04-12 13:24:00,
2013-04-12 09:30:00,62.4,60.7,29.59,West,271,0.0,13.0,94,0.00,,,0.89,Wunderground v.1.15,2013-04-12 13:30:00,
2013-04-12 09:36:00,62.5,60.7,29.59,NE,40,0.0,13.0,94,0.00,,,0.89,Wunderground v.1.15,2013-04-12 13:36:00,
2013-04-12 09:42:00,62.7,60.9,29.59,NE,40,0.0,13.0,94,0.00,,,0.89,Wunderground v.1.15,2013-04-12 13:42:00,
2013-04-12 09:48:00,63.0,61.2,29.59,SE,141,0.0,13.0,94,0.00,,,0.89,Wunderground v.1.15,2013-04-12 13:48:00,
2013-04-12 09:54:00,63.2,61.4,29.59,NNW,334,0.0,13.0,94,0.00,,,0.00,Wunderground v.1.15,2013-04-12 13:54:00,
2013-04-12 10:00:00,63.6,61.8,29.58,NNW,334,0.0,13.0,94,0.00,,,0.00,Wunderground v.1.15,2013-04-12 14:00:00,
2013-04-12 10:08:00,64.0,62.2,29.58,NNW,333,0.0,13.0,94,0.00,,,0.00,Wunderground v.1.15,2013-04-12 14:08:00,
2013-04-12 10:14:00,64.1,61.7,29.59,ESE,109,0.0,13.0,92,0.00,,,0.00,Wunderground v.1.15,2013-04-12 14:14:00,
2013-04-12 10:20:00,64.5,62.4,29.59,ESE,109,0.0,13.0,93,0.00,,,0.00,Wunderground v.1.15,2013-04-12 14:20:00,
2013-04-12 10:28:00,64.9,62.2,29.58,SW,225,0.0,13.0,91,0.00,,,0.00,Wunderground v.1.15,2013-04-12 14:28:00,
2013-04-12 10:34:00,65.2,62.5,29.58,SW,225,0.0,13.0,91,0.00,,,0.00,Wunderground v.1.15,2013-04-12 14:34:00,
2013-04-12 10:40:00,65.7,63.0,29.59,ESE,113,0.0,13.0,91,0.00,,,0.00,Wunderground v.1.15,2013-04-12 14:40:00,
2013-04-12 10:46:00,66.2,63.2,29.59,SSE,157,0.0,13.0,90,0.00,,,0.00,Wunderground v.1.15,2013-04-12 14:46:00,
2013-04-12 10:52:00,66.7,63.4,29.58,SE,144,1.0,13.0,89,0.00,,,0.00,Wunderground v.1.15,2013-04-12 14:52:00,
2013-04-12 10:58:00,67.1,63.1,29.58,South,183,1.0,1.0,87,0.00,,,0.00,Wunderground v.1.15,2013-04-12 14:58:00,
2013-04-12 11:08:00,67.9,63.9,29.58,NW,307,2.0,2.0,87,0.00,,,0.00,Wunderground v.1.15,2013-04-12 15:08:00,
2013-04-12 11:14:00,68.4,64.0,29.58,SSW,208,1.0,6.0,86,0.00,,,0.00,Wunderground v.1.15,2013-04-12 15:14:00,
2013-04-12 11:20:00,68.5,64.1,29.58,West,267,2.0,6.0,86,0.00,,,0.00,Wunderground v.1.15,2013-04-12 15:20:00,
2013-04-12 11:28:00,68.6,63.6,29.58,South,187,1.0,1.0,84,0.00,,,0.00,Wunderground v.1.15,2013-04-12 15:28:00,
2013-04-12 11:34:00,68.7,63.3,29.58,ESE,121,1.0,6.0,83,0.00,,,0.00,Wunderground v.1.15,2013-04-12 15:34:00,
2013-04-12 11:40:00,68.8,63.1,29.58,SSW,203,1.0,6.0,82,0.00,,,0.00,Wunderground v.1.15,2013-04-12 15:40:00,
2013-04-12 11:46:00,69.1,63.7,29.58,East,80,1.0,6.0,83,0.00,,,0.00,Wunderground v.1.15,2013-04-12 15:46:00,
2013-04-12 11:52:00,69.2,63.5,29.57,SW,220,1.0,6.0,82,0.00,,,0.00,Wunderground v.1.15,2013-04-12 15:52:00,
2013-04-12 11:58:00,69.3,63.6,29.58,South,188,0.0,6.0,82,0.00,,,0.00,Wunderground v.1.15,2013-04-12 15:58:00,
2013-04-12 12:04:00,69.3,63.6,29.57,SE,138,1.0,6.0,82,0.00,,,0.00,Wunderground v.1.15,2013-04-12 16:04:00,
2013-04-12 12:10:00,69.4,63.3,29.58,WNW,289,1.0,6.0,81,0.00,,,0.00,Wunderground v.1.15,2013-04-12 16:10:00,
2013-04-12 12:18:00,69.5,63.4,29.57,SW,226,0.0,6.0,81,0.00,,,0.00,Wunderground v.1.15,2013-04-12 16:18:00,
2013-04-12 12:24:00,69.8,63.7,29.57,WSW,254,1.0,6.0,81,0.00,,,0.00,Wunderground v.1.15,2013-04-12 16:24:00,
2013-04-12 12:30:00,70.2,64.1,29.57,East,81,1.0,4.0,81,0.00,,,0.00,Wunderground v.1.15,2013-04-12 16:30:00,
2013-04-12 12:36:00,70.9,64.4,29.57,South,190,1.0,6.0,80,0.00,,,0.00,Wunderground v.1.15,2013-04-12 16:36:00,
2013-04-12 12:42:00,71.4,63.8,29.57,SE,143,2.0,6.0,77,0.00,,,0.00,Wunderground v.1.15,2013-04-12 16:42:00,
2013-04-12 12:48:00,71.9,64.3,29.56,ESE,110,2.0,6.0,77,0.00,,,0.00,Wunderground v.1.15,2013-04-12 16:48:00,
2013-04-12 12:54:00,72.6,65.0,29.56,West,271,1.0,6.0,77,0.00,,,0.00,Wunderground v.1.15,2013-04-12 16:54:00,
2013-04-12 13:00:00,73.3,64.1,29.56,ENE,68,2.0,7.0,73,0.00,,,0.00,Wunderground v.1.15,2013-04-12 17:00:00,
2013-04-12 13:06:00,74.0,63.6,29.55,SSE,161,2.0,7.0,70,0.00,,,0.00,Wunderground v.1.15,2013-04-12 17:06:00,
2013-04-12 13:12:00,74.6,63.3,29.55,SSW,209,2.0,7.0,68,0.00,,,0.00,Wunderground v.1.15,2013-04-12 17:12:00,
2013-04-12 13:18:00,74.9,63.2,29.55,SSE,149,2.0,2.0,67,0.00,,,0.00,Wunderground v.1.15,2013-04-12 17:18:00,
2013-04-12 13:24:00,75.5,63.3,29.55,SSW,194,3.0,7.0,66,0.00,,,0.00,Wunderground v.1.15,2013-04-12 17:24:00,
2013-04-12 13:30:00,75.6,62.1,29.54,WNW,284,3.0,7.0,63,0.00,,,0.00,Wunderground v.1.15,2013-04-12 17:30:00,
2013-04-12 13:36:00,75.5,62.5,29.54,ENE,68,3.0,7.0,64,0.00,,,0.00,Wunderground v.1.15,2013-04-12 17:36:00,
2013-04-12 13:42:00,75.5,61.1,29.54,South,172,3.0,7.0,61,0.00,,,0.00,Wunderground v.1.15,2013-04-12 17:42:00,
2013-04-12 13:48:00,75.7,60.4,29.54,WSW,257,3.0,3.0,59,0.00,,,0.00,Wunderground v.1.15,2013-04-12 17:48:00,
2013-04-12 13:54:00,76.0,60.2,29.54,NW,325,3.0,10.0,58,0.00,,,0.00,Wunderground v.1.15,2013-04-12 17:54:00,
2013-04-12 14:00:00,76.6,59.2,29.54,ENE,61,4.0,7.0,55,0.00,,,0.00,Wunderground v.1.15,2013-04-12 18:00:00,
2013-04-12 14:10:00,77.2,60.3,29.54,West,269,3.0,5.0,56,0.00,,,0.00,Wunderground v.1.15,2013-04-12 18:10:00,
2013-04-12 15:26:00,78.6,57.3,29.51,SE,131,1.0,14.0,48,0.00,,,0.00,Wunderground v.1.15,2013-04-12 19:26:00,
2013-04-12 15:28:00,78.7,56.8,29.51,SSE,150,1.0,1.0,47,0.00,,,0.00,Wunderground v.1.15,2013-04-12 19:28:00,
2013-04-12 15:32:00,78.9,57.0,29.51,South,178,2.0,14.0,47,0.00,,,0.00,Wunderground v.1.15,2013-04-12 19:32:00,
2013-04-12 15:38:00,79.3,57.9,29.51,ENE,60,2.0,14.0,48,0.00,,,0.00,Wunderground v.1.15,2013-04-12 19:38:00,
2013-04-12 15:40:00,79.3,58.5,29.51,WSW,250,2.0,14.0,49,0.00,,,0.00,Wunderground v.1.15,2013-04-12 19:40:00,
2013-04-12 15:50:00,78.9,57.5,29.51,SSW,201,2.0,14.0,48,0.00,,,0.00,Wunderground v.1.15,2013-04-12 19:50:00,
2013-04-12 15:56:00,78.7,56.8,29.51,West,276,1.0,14.0,47,0.00,,,0.00,Wunderground v.1.15,2013-04-12 19:56:00,
2013-04-12 16:04:00,78.5,54.1,29.50,WNW,291,2.0,14.0,43,0.00,,,0.00,Wunderground v.1.15,2013-04-12 20:04:00,
2013-04-12 16:10:00,78.4,55.9,29.50,NW,310,4.0,14.0,46,0.00,,,0.00,Wunderground v.1.15,2013-04-12 20:10:00,
2013-04-12 16:18:00,78.8,55.7,29.50,SW,232,3.0,14.0,45,0.00,,,0.00,Wunderground v.1.15,2013-04-12 20:18:00,
2013-04-12 16:24:00,79.2,56.0,29.50,NW,325,3.0,14.0,45,0.00,,,0.00,Wunderground v.1.15,2013-04-12 20:24:00,
2013-04-12 16:30:00,78.9,54.5,29.50,SSE,161,3.0,14.0,43,0.00,,,0.00,Wunderground v.1.15,2013-04-12 20:30:00,
2013-04-12 16:36:00,78.9,55.1,29.50,West,273,2.0,14.0,44,0.00,,,0.00,Wunderground v.1.15,2013-04-12 20:36:00,
2013-04-12 16:42:00,79.3,55.5,29.49,West,266,2.0,14.0,44,0.00,,,0.00,Wunderground v.1.15,2013-04-12 20:42:00,
2013-04-12 16:48:00,79.7,53.9,29.49,West,273,2.0,2.0,41,0.00,,,0.00,Wunderground v.1.15,2013-04-12 20:48:00,
2013-04-12 16:54:00,79.9,53.4,29.50,SSW,209,2.0,14.0,40,0.00,,,0.00,Wunderground v.1.15,2013-04-12 20:54:00,
2013-04-12 17:00:00,80.2,54.4,29.50,West,277,3.0,5.0,41,0.00,,,0.00,Wunderground v.1.15,2013-04-12 21:00:00,
2013-04-12 17:06:00,79.9,52.0,29.50,West,275,4.0,13.0,38,0.00,,,0.00,Wunderground v.1.15,2013-04-12 21:06:00,
2013-04-12 17:12:00,79.6,53.8,29.50,West,280,3.0,13.0,41,0.00,,,0.00,Wunderground v.1.15,2013-04-12 21:12:00,
2013-04-12 17:18:00,78.8,53.8,29.50,West,261,2.0,2.0,42,0.00,,,0.00,Wunderground v.1.15,2013-04-12 21:18:00,
2013-04-12 17:24:00,78.7,53.7,29.50,East,86,2.0,13.0,42,0.00,,,0.00,Wunderground v.1.15,2013-04-12 21:24:00,
2013-04-12 17:34:00,78.8,54.4,29.50,West,281,3.0,13.0,43,0.00,,,0.00,Wunderground v.1.15,2013-04-12 21:34:00,
2013-04-12 17:40:00,78.8,53.8,29.50,South,183,5.0,13.0,42,0.00,,,0.00,Wunderground v.1.15,2013-04-12 21:40:00,
2013-04-12 17:46:00,78.7,52.3,29.50,SW,227,6.0,13.0,40,0.00,,,0.00,Wunderground v.1.15,2013-04-12 21:46:00,
2013-04-12 17:52:00,78.7,52.3,29.50,SW,229,5.0,13.0,40,0.00,,,0.00,Wunderground v.1.15,2013-04-12 21:52:00,
2013-04-12 18:00:00,78.6,52.3,29.50,WSW,242,5.0,15.0,40,0.00,,,0.00,Wunderground v.1.15,2013-04-12 22:00:00,
2013-04-12 18:06:00,78.4,51.4,29.50,WSW,250,4.0,15.0,39,0.00,,,0.00,Wunderground v.1.15,2013-04-12 22:06:00,
2013-04-12 18:12:00,78.5,52.2,29.51,NW,324,4.0,15.0,40,0.00,,,0.00,Wunderground v.1.15,2013-04-12 22:12:00,
2013-04-12 18:20:00,78.4,51.4,29.51,West,269,3.0,15.0,39,0.00,,,0.00,Wunderground v.1.15,2013-04-12 22:20:00,
2013-04-12 18:26:00,78.3,52.0,29.51,WNW,285,3.0,15.0,40,0.00,,,0.00,Wunderground v.1.15,2013-04-12 22:26:00,
2013-04-12 18:32:00,78.1,51.8,29.52,West,261,4.0,15.0,40,0.00,,,0.00,Wunderground v.1.15,2013-04-12 22:32:00,
2013-04-12 18:38:00,77.9,50.2,29.52,WSW,246,4.0,15.0,38,0.00,,,0.00,Wunderground v.1.15,2013-04-12 22:38:00,
2013-04-12 18:44:00,77.6,50.7,29.53,SW,227,4.0,15.0,39,0.00,,,0.00,Wunderground v.1.15,2013-04-12 22:44:00,
2013-04-12 18:50:00,77.4,48.3,29.53,WNW,298,4.0,15.0,36,0.00,,,0.00,Wunderground v.1.15,2013-04-12 22:50:00,
2013-04-12 18:56:00,76.9,48.6,29.53,SW,218,3.0,15.0,37,0.00,,,0.00,Wunderground v.1.15,2013-04-12 22:56:00,
2013-04-12 19:04:00,76.2,47.3,29.53,SW,220,4.0,12.0,36,0.00,,,0.00,Wunderground v.1.15,2013-04-12 23:04:00,
2013-04-12 19:10:00,75.6,46.8,29.53,SW,227,4.0,12.0,36,0.00,,,0.00,Wunderground v.1.15,2013-04-12 23:10:00,
2013-04-12 19:16:00,75.2,46.4,29.54,SW,232,5.0,12.0,36,0.00,,,0.00,Wunderground v.1.15,2013-04-12 23:16:00,
2013-04-12 19:22:00,74.9,45.4,29.54,WNW,282,3.0,12.0,35,0.00,,,0.00,Wunderground v.1.15,2013-04-12 23:22:00,
2013-04-12 19:28:00,74.5,45.8,29.54,West,277,2.0,2.0,36,0.00,,,0.00,Wunderground v.1.15,2013-04-12 23:28:00,
2013-04-12 19:34:00,74.1,46.9,29.54,West,277,1.0,12.0,38,0.00,,,0.00,Wunderground v.1.15,2013-04-12 23:34:00,
2013-04-12 19:40:00,73.7,45.8,29.55,SSW,213,1.0,4.0,37,0.00,,,0.00,Wunderground v.1.15,2013-04-12 23:40:00,
2013-04-12 19:46:00,73.5,45.6,29.55,West,280,2.0,12.0,37,0.00,,,0.00,Wunderground v.1.15,2013-04-12 23:46:00,
2013-04-12 19:52:00,73.2,46.1,29.55,NNW,327,1.0,12.0,38,0.00,,,0.00,Wunderground v.1.15,2013-04-12 23:52:00,
2013-04-12 20:02:00,72.5,44.7,29.55,West,265,1.0,18.0,37,0.00,,,0.00,Wunderground v.1.15,2013-04-13 00:02:00,
2013-04-12 20:10:00,72.1,45.1,29.55,SSW,213,1.0,18.0,38,0.00,,,0.00,Wunderground v.1.15,2013-04-13 00:10:00,
2013-04-12 20:16:00,71.8,44.1,29.56,West,269,0.0,18.0,37,0.00,,,0.00,Wunderground v.1.15,2013-04-13 00:16:00,
2013-04-12 20:22:00,71.5,45.2,29.56,WSW,239,0.0,18.0,39,0.00,,,0.00,Wunderground v.1.15,2013-04-13 00:22:00,
2013-04-12 20:28:00,70.9,43.3,29.56,WSW,239,0.0,18.0,37,0.00,,,0.00,Wunderground v.1.15,2013-04-13 00:28:00,
2013-04-12 20:34:00,70.9,42.6,29.56,SSW,192,1.0,18.0,36,0.00,,,0.00,Wunderground v.1.15,2013-04-13 00:34:00,
2013-04-12 20:40:00,71.0,41.2,29.57,West,278,1.0,18.0,34,0.00,,,0.00,Wunderground v.1.15,2013-04-13 00:40:00,
2013-04-12 20:48:00,70.9,40.3,29.58,SW,218,1.0,1.0,33,0.00,,,0.00,Wunderground v.1.15,2013-04-13 00:48:00,
2013-04-12 20:54:00,70.6,43.1,29.58,WNW,300,0.0,18.0,37,0.00,,,0.00,Wunderground v.1.15,2013-04-13 00:54:00,
2013-04-12 21:00:00,70.3,40.6,29.58,SW,232,0.0,2.0,34,0.00,,,0.00,Wunderground v.1.15,2013-04-13 01:00:00,
2013-04-12 21:06:00,70.2,39.7,29.59,WSW,242,1.0,10.0,33,0.00,,,0.00,Wunderground v.1.15,2013-04-13 01:06:00,
2013-04-12 21:12:00,70.2,39.7,29.59,SW,233,3.0,10.0,33,0.00,,,0.00,Wunderground v.1.15,2013-04-13 01:12:00,
2013-04-12 21:18:00,70.3,39.0,29.59,WSW,250,4.0,10.0,32,0.00,,,0.00,Wunderground v.1.15,2013-04-13 01:18:00,
2013-04-12 21:24:00,70.3,38.2,29.60,West,278,3.0,10.0,31,0.00,,,0.00,Wunderground v.1.15,2013-04-13 01:24:00,
2013-04-12 21:30:00,70.2,38.9,29.60,WSW,253,3.0,10.0,32,0.00,,,0.00,Wunderground v.1.15,2013-04-13 01:30:00,
2013-04-12 21:36:00,70.0,38.8,29.60,West,265,3.0,10.0,32,0.00,,,0.00,Wunderground v.1.15,2013-04-13 01:36:00,
2013-04-12 21:42:00,69.7,38.5,29.60,WNW,303,2.0,10.0,32,0.00,,,0.00,Wunderground v.1.15,2013-04-13 01:42:00,
2013-04-12 21:50:00,69.4,40.5,29.61,SW,228,1.0,10.0,35,0.00,,,0.00,Wunderground v.1.15,2013-04-13 01:50:00,
2013-04-12 21:56:00,69.2,39.6,29.61,WSW,250,1.0,10.0,34,0.00,,,0.00,Wunderground v.1.15,2013-04-13 01:56:00,
2013-04-12 22:02:00,68.8,40.0,29.62,SSW,202,1.0,10.0,35,0.00,,,0.00,Wunderground v.1.15,2013-04-13 02:02:00,
2013-04-12 22:08:00,68.3,39.6,29.62,East,80,0.0,10.0,35,0.00,,,0.00,Wunderground v.1.15,2013-04-13 02:08:00,
2013-04-12 22:14:00,67.8,40.6,29.62,SW,231,1.0,10.0,37,0.00,,,0.00,Wunderground v.1.15,2013-04-13 02:14:00,
2013-04-12 22:20:00,67.7,39.8,29.63,WNW,290,4.0,4.0,36,0.00,,,0.00,Wunderground v.1.15,2013-04-13 02:20:00,
2013-04-12 22:26:00,68.0,40.7,29.63,West,272,6.0,10.0,37,0.00,,,0.00,Wunderground v.1.15,2013-04-13 02:26:00,
2013-04-12 22:34:00,67.7,40.5,29.63,WSW,254,5.0,10.0,37,0.00,,,0.00,Wunderground v.1.15,2013-04-13 02:34:00,
2013-04-12 22:40:00,67.4,40.9,29.63,NW,305,3.0,6.0,38,0.00,,,0.00,Wunderground v.1.15,2013-04-13 02:40:00,
2013-04-12 22:46:00,66.9,39.8,29.64,SSW,205,3.0,10.0,37,0.00,,,0.00,Wunderground v.1.15,2013-04-13 02:46:00,
2013-04-12 22:52:00,66.7,38.9,29.64,West,277,3.0,10.0,36,0.00,,,0.00,Wunderground v.1.15,2013-04-13 02:52:00,
2013-04-12 22:58:00,66.5,39.4,29.65,WSW,253,5.0,13.0,37,0.00,,,0.00,Wunderground v.1.15,2013-04-13 02:58:00,
2013-04-12 23:04:00,66.2,39.1,29.65,WSW,251,5.0,13.0,37,0.00,,,0.00,Wunderground v.1.15,2013-04-13 03:04:00,
2013-04-12 23:10:00,65.8,38.1,29.65,WNW,294,3.0,13.0,36,0.00,,,0.00,Wunderground v.1.15,2013-04-13 03:10:00,
2013-04-12 23:20:00,65.2,39.6,29.66,NW,310,2.0,13.0,39,0.00,,,0.00,Wunderground v.1.15,2013-04-13 03:20:00,
2013-04-12 23:26:00,64.7,38.5,29.66,WNW,292,1.0,13.0,38,0.00,,,0.00,Wunderground v.1.15,2013-04-13 03:26:00,
2013-04-12 23:32:00,64.6,38.4,29.67,NW,320,3.0,13.0,38,0.00,,,0.00,Wunderground v.1.15,2013-04-13 03:32:00,
2013-04-12 23:44:00,63.6,38.8,29.67,WNW,296,5.0,13.0,40,0.00,,,0.00,Wunderground v.1.15,2013-04-13 03:44:00,
2013-04-12 23:50:00,63.3,39.2,29.67,SSW,209,6.0,13.0,41,0.00,,,0.00,Wunderground v.1.15,2013-04-13 03:50:00,
2013-04-12 23:58:00,62.9,38.8,29.67,WNW,284,6.0,13.0,41,0.00,,,0.00,Wunderground v.1.15,2013-04-13 03:58:00,